Airfield :
LOGIN :

Register | Disclaimer

   EN    FR    IT 

 










Legend :    VFR   Marginal VFR   IFR   Intensive IFR   Very Intensive IFR
Visi :
Ceiling :
>= 8 km
>= 3000ft
5 to 8 km
1000 to 3000 ft
1500m to 5 km
500 to 1000 ft
800 to 1500m
200 to 500 ft
< 800m
< 200 ft
Symbols :   Thunderstorms  Fog  Heavy snow  Heavy precipitations  Wind > 20 kt
SIGMETs :     Misc.  Thunderstorms  Icing  Turbulence  Mountain Waves  Volcanic Ashes







- Airport Elevation : 257 ft
- IATA code : MAN
- Download approach charts


EGCC - Manchester

CURRENT METAR :
  • 221120Z AUTO 23008KT 190V260 9999 SCT048 11/07 Q1017 NOSIG

EXPIRED METARs :
  • 221050Z AUTO 22006KT 190V250 9999 BKN049 11/07 Q1017 NOSIG
  • 221020Z AUTO 21005KT 9999 NCD 11/08 Q1017 NOSIG
  • 220950Z AUTO 21006KT 9999 NCD 10/07 Q1017 NOSIG
  • 220920Z AUTO 20005KT 150V240 9999 NCD 10/08 Q1017 NOSIG
  • 220850Z AUTO 21005KT 9999 NCD 10/07 Q1017 NOSIG

TAF TAF EGCC
Valid from the 22 at 12:00 until the 23 at 18:00 UTC


221058Z 2212/2318 23007KT 9999 SCT040
PROB30
TEMPO 2212/2217 8000 -SHRA
BECMG 2309/2312 31010KT
TEMPO 2309/2317 6000 SHRA
PROB30
TEMPO 2313/2317 32015G25KT
ATIS : +44 161 499 2324
No reported NOTAMs for that airfield.
1 SIGMET reported for the London FIR (EGTT) :
 
Severe icing
EGTT SIGMET 05 VALID 221000/221400 EGRR
EGTT LONDON FIR SEV ICE FCST WI N5013 W00212 - N5140 W00530 - N5229 W00432 - N5050 W00005 - N5013 W00212 FL060/150 MOV E 25KT NC=



MET'MAP, your aeronautical weather chart ! - Copyright ORBIFLY December 2007 - Disclaimer

ORBIFLY MET'MAP TEAM :

Programming & Development : Alexandra Zaïnal
Concept & Development : Baudouin d'Aumeries
Co-Development & Prog : Marc-Olivier Méhu
Technical & hardware support : Manuel Goepfert

Contact : metmap@orbifly.com




SOURCES & CREDITS :

   NOAA